sensor_id;sensor_type;location;lat;lon;timestamp;pressure;altitude;pressure_sealevel;temperature;humidity
38022;BME280;23832;43.216;27.946;2022-08-20T00:01:30;100326.41;;;27.43;100.00
38022;BME280;23832;43.216;27.946;2022-08-20T00:03:37;100332.94;;;27.42;100.00
38022;BME280;23832;43.216;27.946;2022-08-20T00:05:42;100322.97;;;27.38;100.00
38022;BME280;23832;43.216;27.946;2022-08-20T00:07:44;100319.75;;;27.36;100.00
38022;BME280;23832;43.216;27.946;2022-08-20T00:09:47;100321.97;;;27.34;100.00
38022;BME280;23832;43.216;27.946;2022-08-20T00:11:49;100312.00;;;27.29;100.00
38022;BME280;23832;43.216;27.946;2022-08-20T00:13:53;100324.22;;;27.27;100.00
38022;BME280;23832;43.216;27.946;2022-08-20T00:15:55;100316.38;;;27.25;100.00
38022;BME280;23832;43.216;27.946;2022-08-20T00:17:59;100319.41;;;27.24;100.00
38022;BME280;23832;43.216;27.946;2022-08-20T00:20:01;100314.78;;;27.24;100.00
38022;BME280;23832;43.216;27.946;2022-08-20T00:22:03;100321.00;;;27.25;100.00
38022;BME280;23832;43.216;27.946;2022-08-20T00:24:05;100315.88;;;27.23;100.00
38022;BME280;23832;43.216;27.946;2022-08-20T00:26:08;100320.19;;;27.24;100.00
38022;BME280;23832;43.216;27.946;2022-08-20T00:28:11;100318.59;;;27.23;100.00
38022;BME280;23832;43.216;27.946;2022-08-20T00:30:14;100319.41;;;27.24;100.00
38022;BME280;23832;43.216;27.946;2022-08-20T00:32:16;100316.69;;;27.24;100.00
38022;BME280;23832;43.216;27.946;2022-08-20T00:34:20;100316.94;;;27.22;100.00
38022;BME280;23832;43.216;27.946;2022-08-20T00:36:22;100313.22;;;27.18;100.00
38022;BME280;23832;43.216;27.946;2022-08-20T00:38:24;100309.72;;;27.18;100.00
38022;BME280;23832;43.216;27.946;2022-08-20T00:40:31;100309.22;;;27.15;100.00
38022;BME280;23832;43.216;27.946;2022-08-20T00:42:40;100312.47;;;27.12;100.00
38022;BME280;23832;43.216;27.946;2022-08-20T00:44:43;100303.84;;;27.10;100.00
38022;BME280;23832;43.216;27.946;2022-08-20T00:46:46;100306.84;;;27.09;100.00
38022;BME280;23832;43.216;27.946;2022-08-20T00:48:51;100303.66;;;27.07;100.00
38022;BME280;23832;43.216;27.946;2022-08-20T00:51:05;100306.66;;;27.05;100.00
38022;BME280;23832;43.216;27.946;2022-08-20T00:53:07;100303.66;;;27.02;100.00
38022;BME280;23832;43.216;27.946;2022-08-20T00:55:11;100308.88;;;26.98;100.00
38022;BME280;23832;43.216;27.946;2022-08-20T00:57:22;100300.75;;;26.98;100.00
38022;BME280;23832;43.216;27.946;2022-08-20T00:59:29;100300.25;;;26.96;100.00
38022;BME280;23832;43.216;27.946;2022-08-20T01:01:32;100302.69;;;26.93;100.00
38022;BME280;23832;43.216;27.946;2022-08-20T01:03:34;100294.88;;;26.91;100.00
38022;BME280;23832;43.216;27.946;2022-08-20T01:05:37;100294.88;;;26.91;100.00
38022;BME280;23832;43.216;27.946;2022-08-20T01:07:41;100288.66;;;26.91;100.00
38022;BME280;23832;43.216;27.946;2022-08-20T01:09:45;100285.16;;;26.90;100.00
38022;BME280;23832;43.216;27.946;2022-08-20T01:11:47;100292.75;;;26.88;100.00
38022;BME280;23832;43.216;27.946;2022-08-20T01:13:49;100287.41;;;26.83;100.00
38022;BME280;23832;43.216;27.946;2022-08-20T01:15:53;100278.28;;;26.79;100.00
38022;BME280;23832;43.216;27.946;2022-08-20T01:17:58;100283.94;;;26.77;100.00
38022;BME280;23832;43.216;27.946;2022-08-20T01:20:05;100279.41;;;26.73;100.00
38022;BME280;23832;43.216;27.946;2022-08-20T01:22:08;100283.50;;;26.70;100.00
38022;BME280;23832;43.216;27.946;2022-08-20T01:24:32;100284.88;;;26.68;100.00
38022;BME280;23832;43.216;27.946;2022-08-20T01:26:40;100290.56;;;26.66;100.00
38022;BME280;23832;43.216;27.946;2022-08-20T01:28:44;100287.66;;;26.63;100.00
38022;BME280;23832;43.216;27.946;2022-08-20T01:30:48;100279.06;;;26.55;100.00
38022;BME280;23832;43.216;27.946;2022-08-20T01:32:50;100280.69;;;26.56;100.00
38022;BME280;23832;43.216;27.946;2022-08-20T01:34:52;100281.78;;;26.55;100.00
38022;BME280;23832;43.216;27.946;2022-08-20T01:36:55;100279.13;;;26.50;100.00
38022;BME280;23832;43.216;27.946;2022-08-20T01:38:58;100278.59;;;26.48;100.00
38022;BME280;23832;43.216;27.946;2022-08-20T01:43:25;100280.75;;;26.51;100.00
38022;BME280;23832;43.216;27.946;2022-08-20T01:45:27;100279.91;;;26.51;100.00
38022;BME280;23832;43.216;27.946;2022-08-20T01:47:31;100291.78;;;26.55;100.00
38022;BME280;23832;43.216;27.946;2022-08-20T01:49:34;100287.19;;;26.55;100.00
38022;BME280;23832;43.216;27.946;2022-08-20T01:51:36;100284.47;;;26.55;100.00
38022;BME280;23832;43.216;27.946;2022-08-20T01:53:41;100283.69;;;26.55;100.00
38022;BME280;23832;43.216;27.946;2022-08-20T01:55:44;100283.97;;;26.53;100.00
38022;BME280;23832;43.216;27.946;2022-08-20T01:57:46;100284.78;;;26.54;100.00
38022;BME280;23832;43.216;27.946;2022-08-20T01:59:50;100286.16;;;26.51;100.00
38022;BME280;23832;43.216;27.946;2022-08-20T02:01:53;100284.53;;;26.50;100.00
38022;BME280;23832;43.216;27.946;2022-08-20T02:03:55;100278.59;;;26.48;100.00
38022;BME280;23832;43.216;27.946;2022-08-20T02:05:58;100281.31;;;26.48;100.00
38022;BME280;23832;43.216;27.946;2022-08-20T02:08:02;100284.00;;;26.48;100.00
38022;BME280;23832;43.216;27.946;2022-08-20T02:10:06;100273.19;;;26.48;100.00
38022;BME280;23832;43.216;27.946;2022-08-20T02:12:10;100275.63;;;26.50;100.00
38022;BME280;23832;43.216;27.946;2022-08-20T02:14:15;100266.41;;;26.51;100.00
38022;BME280;23832;43.216;27.946;2022-08-20T02:16:20;100260.75;;;26.52;100.00
38022;BME280;23832;43.216;27.946;2022-08-20T02:18:22;100268.84;;;26.52;100.00
38022;BME280;23832;43.216;27.946;2022-08-20T02:20:28;100262.34;;;26.53;100.00
38022;BME280;23832;43.216;27.946;2022-08-20T02:22:36;100268.56;;;26.54;100.00
38022;BME280;23832;43.216;27.946;2022-08-20T02:24:40;100268.31;;;26.50;100.00
38022;BME280;23832;43.216;27.946;2022-08-20T02:26:42;100266.69;;;26.49;100.00
38022;BME280;23832;43.216;27.946;2022-08-20T02:28:45;100263.47;;;26.47;100.00
38022;BME280;23832;43.216;27.946;2022-08-20T02:30:51;100270.00;;;26.46;100.00
38022;BME280;23832;43.216;27.946;2022-08-20T02:32:56;100260.28;;;26.45;100.00
38022;BME280;23832;43.216;27.946;2022-08-20T02:34:58;100263.28;;;26.44;100.00
38022;BME280;23832;43.216;27.946;2022-08-20T02:37:04;100265.44;;;26.42;100.00
38022;BME280;23832;43.216;27.946;2022-08-20T02:39:09;100271.66;;;26.42;100.00
38022;BME280;23832;43.216;27.946;2022-08-20T02:41:11;100266.56;;;26.36;100.00
38022;BME280;23832;43.216;27.946;2022-08-20T02:43:14;100261.97;;;26.36;100.00
38022;BME280;23832;43.216;27.946;2022-08-20T02:45:18;100270.66;;;26.33;100.00
38022;BME280;23832;43.216;27.946;2022-08-20T02:47:21;100264.69;;;26.31;100.00
38022;BME280;23832;43.216;27.946;2022-08-20T02:49:26;100269.00;;;26.32;100.00
38022;BME280;23832;43.216;27.946;2022-08-20T02:51:28;100266.31;;;26.32;100.00
38022;BME280;23832;43.216;27.946;2022-08-20T02:53:33;100269.00;;;26.32;100.00
38022;BME280;23832;43.216;27.946;2022-08-20T02:55:36;100268.50;;;26.30;100.00
38022;BME280;23832;43.216;27.946;2022-08-20T02:57:38;100275.50;;;26.31;100.00
38022;BME280;23832;43.216;27.946;2022-08-20T02:59:40;100274.50;;;26.27;100.00
38022;BME280;23832;43.216;27.946;2022-08-20T03:01:44;100271.19;;;26.30;100.00
38022;BME280;23832;43.216;27.946;2022-08-20T03:03:47;100273.09;;;26.29;100.00
38022;BME280;23832;43.216;27.946;2022-08-20T03:05:54;100284.72;;;26.30;100.00
38022;BME280;23832;43.216;27.946;2022-08-20T03:07:56;100269.31;;;26.30;100.00
38022;BME280;23832;43.216;27.946;2022-08-20T03:09:59;100265.28;;;26.28;100.00
38022;BME280;23832;43.216;27.946;2022-08-20T03:12:01;100266.09;;;26.28;100.00
38022;BME280;23832;43.216;27.946;2022-08-20T03:14:03;100273.38;;;26.28;100.00
38022;BME280;23832;43.216;27.946;2022-08-20T03:16:06;100279.59;;;26.28;100.00
38022;BME280;23832;43.216;27.946;2022-08-20T03:18:09;100281.50;;;26.28;100.00
38022;BME280;23832;43.216;27.946;2022-08-20T03:20:12;100284.72;;;26.30;100.00
38022;BME280;23832;43.216;27.946;2022-08-20T03:22:15;100274.72;;;26.30;100.00
38022;BME280;23832;43.216;27.946;2022-08-20T03:24:17;100275.50;;;26.31;100.00
38022;BME280;23832;43.216;27.946;2022-08-20T03:26:19;100274.72;;;26.30;100.00
38022;BME280;23832;43.216;27.946;2022-08-20T03:28:21;100264.69;;;26.31;100.00
38022;BME280;23832;43.216;27.946;2022-08-20T03:30:25;100276.09;;;26.28;100.00
38022;BME280;23832;43.216;27.946;2022-08-20T03:32:27;100269.09;;;26.27;100.00
38022;BME280;23832;43.216;27.946;2022-08-20T03:34:29;100263.16;;;26.25;100.00
38022;BME280;23832;43.216;27.946;2022-08-20T03:36:31;100269.09;;;26.27;100.00
38022;BME280;23832;43.216;27.946;2022-08-20T03:38:35;100264.47;;;26.27;100.00
38022;BME280;23832;43.216;27.946;2022-08-20T03:40:39;100267.19;;;26.27;100.00
38022;BME280;23832;43.216;27.946;2022-08-20T03:42:41;100278.00;;;26.27;100.00
38022;BME280;23832;43.216;27.946;2022-08-20T03:44:43;100278.78;;;26.28;100.00
38022;BME280;23832;43.216;27.946;2022-08-20T03:46:45;100281.22;;;26.29;100.00
38022;BME280;23832;43.216;27.946;2022-08-20T03:48:48;100271.72;;;26.32;100.00
38022;BME280;23832;43.216;27.946;2022-08-20T03:50:50;100277.13;;;26.32;100.00
38022;BME280;23832;43.216;27.946;2022-08-20T03:52:53;100278.97;;;26.37;100.00
38022;BME280;23832;43.216;27.946;2022-08-20T03:54:58;100274.38;;;26.37;100.00
38022;BME280;23832;43.216;27.946;2022-08-20T03:57:00;100279.78;;;26.37;100.00
38022;BME280;23832;43.216;27.946;2022-08-20T03:59:02;100278.19;;;26.36;100.00
38022;BME280;23832;43.216;27.946;2022-08-20T04:01:05;100284.13;;;26.38;100.00
38022;BME280;23832;43.216;27.946;2022-08-20T04:03:08;100283.31;;;26.38;100.00
38022;BME280;23832;43.216;27.946;2022-08-20T04:05:12;100286.03;;;26.38;100.00
38022;BME280;23832;43.216;27.946;2022-08-20T04:07:17;100288.41;;;26.44;100.00
38022;BME280;23832;43.216;27.946;2022-08-20T04:09:24;100289.41;;;26.48;100.00
38022;BME280;23832;43.216;27.946;2022-08-20T04:11:30;100293.41;;;26.56;100.00
38022;BME280;23832;43.216;27.946;2022-08-20T04:13:33;100293.34;;;26.61;100.00
38022;BME280;23832;43.216;27.946;2022-08-20T04:15:35;100293.22;;;26.71;100.00
38022;BME280;23832;43.216;27.946;2022-08-20T04:17:39;100297.22;;;26.79;100.00
38022;BME280;23832;43.216;27.946;2022-08-20T04:19:41;100293.03;;;26.86;100.00
38022;BME280;23832;43.216;27.946;2022-08-20T04:21:44;100297.53;;;26.96;100.00
38022;BME280;23832;43.216;27.946;2022-08-20T04:23:48;100300.69;;;27.03;100.00
38022;BME280;23832;43.216;27.946;2022-08-20T04:25:52;100288.72;;;27.09;100.00
38022;BME280;23832;43.216;27.946;2022-08-20T04:27:55;100298.59;;;27.19;100.00
38022;BME280;23832;43.216;27.946;2022-08-20T04:29:57;100294.44;;;27.27;100.00
38022;BME280;23832;43.216;27.946;2022-08-20T04:32:00;100298.91;;;27.36;100.00
38022;BME280;23832;43.216;27.946;2022-08-20T04:34:03;100298.25;;;27.44;100.00
38022;BME280;23832;43.216;27.946;2022-08-20T04:36:07;100301.09;;;27.53;100.00
38022;BME280;23832;43.216;27.946;2022-08-20T04:38:13;100308.25;;;27.63;100.00
38022;BME280;23832;43.216;27.946;2022-08-20T04:40:17;100304.63;;;27.73;100.00
38022;BME280;23832;43.216;27.946;2022-08-20T04:42:37;100309.06;;;27.82;100.00
38022;BME280;23832;43.216;27.946;2022-08-20T04:44:41;100310.31;;;27.90;100.00
38022;BME280;23832;43.216;27.946;2022-08-20T04:46:43;100309.63;;;27.98;100.00
38022;BME280;23832;43.216;27.946;2022-08-20T04:48:45;100312.47;;;28.07;100.00
38022;BME280;23832;43.216;27.946;2022-08-20T04:50:47;100305.56;;;28.14;100.00
38022;BME280;23832;43.216;27.946;2022-08-20T04:52:49;100312.41;;;28.25;100.00
38022;BME280;23832;43.216;27.946;2022-08-20T04:54:51;100311.75;;;28.34;100.00
38022;BME280;23832;43.216;27.946;2022-08-20T04:56:55;100307.25;;;28.43;100.00
38022;BME280;23832;43.216;27.946;2022-08-20T04:59:00;100305.44;;;28.52;100.00
38022;BME280;23832;43.216;27.946;2022-08-20T05:01:05;100305.25;;;28.62;100.00
38022;BME280;23832;43.216;27.946;2022-08-20T05:03:08;100300.72;;;28.71;100.00
38022;BME280;23832;43.216;27.946;2022-08-20T05:05:11;100295.91;;;28.82;100.00
38022;BME280;23832;43.216;27.946;2022-08-20T05:07:15;100305.47;;;28.93;100.00
38022;BME280;23832;43.216;27.946;2022-08-20T05:09:18;100306.06;;;29.04;100.00
38022;BME280;23832;43.216;27.946;2022-08-20T05:11:20;100305.84;;;29.14;100.00
38022;BME280;23832;43.216;27.946;2022-08-20T05:13:22;100313.16;;;29.27;100.00
38022;BME280;23832;43.216;27.946;2022-08-20T05:15:24;100311.81;;;29.38;100.00
38022;BME280;23832;43.216;27.946;2022-08-20T05:17:27;100307.00;;;29.49;100.00
38022;BME280;23832;43.216;27.946;2022-08-20T05:19:30;100316.03;;;29.58;100.00
38022;BME280;23832;43.216;27.946;2022-08-20T05:21:32;100307.94;;;29.67;100.00
38022;BME280;23832;43.216;27.946;2022-08-20T05:23:36;100309.94;;;29.75;100.00
38022;BME280;23832;43.216;27.946;2022-08-20T05:25:43;100321.66;;;29.84;100.00
38022;BME280;23832;43.216;27.946;2022-08-20T05:27:46;100313.25;;;29.94;100.00
38022;BME280;23832;43.216;27.946;2022-08-20T05:29:48;100305.31;;;30.07;100.00
38022;BME280;23832;43.216;27.946;2022-08-20T05:31:52;100306.53;;;30.14;100.00
38022;BME280;23832;43.216;27.946;2022-08-20T05:33:57;100309.78;;;30.25;100.00
38022;BME280;23832;43.216;27.946;2022-08-20T05:35:59;100305.66;;;30.36;100.00
38022;BME280;23832;43.216;27.946;2022-08-20T05:38:01;100301.56;;;30.47;100.00
38022;BME280;23832;43.216;27.946;2022-08-20T05:40:08;100299.03;;;30.60;100.00
38022;BME280;23832;43.216;27.946;2022-08-20T05:42:11;100298.16;;;30.73;100.00
38022;BME280;23832;43.216;27.946;2022-08-20T05:44:13;100297.25;;;30.86;100.00
38022;BME280;23832;43.216;27.946;2022-08-20T05:46:15;100290.84;;;30.99;100.00
38022;BME280;23832;43.216;27.946;2022-08-20T05:48:20;100287.19;;;31.13;100.00
38022;BME280;23832;43.216;27.946;2022-08-20T05:50:24;100290.13;;;31.25;100.00
38022;BME280;23832;43.216;27.946;2022-08-20T05:52:26;100284.34;;;31.35;100.00
38022;BME280;23832;43.216;27.946;2022-08-20T05:54:29;100287.72;;;31.49;100.00
38022;BME280;23832;43.216;27.946;2022-08-20T05:56:32;100286.44;;;31.64;100.00
38022;BME280;23832;43.216;27.946;2022-08-20T05:58:34;100280.03;;;31.77;100.00
38022;BME280;23832;43.216;27.946;2022-08-20T06:00:36;100288.03;;;31.91;100.00
38022;BME280;23832;43.216;27.946;2022-08-20T06:02:38;100277.13;;;32.00;100.00
38022;BME280;23832;43.216;27.946;2022-08-20T06:04:58;100277.25;;;32.03;96.51
38022;BME280;23832;43.216;27.946;2022-08-20T06:07:04;100278.69;;;32.09;96.61
38022;BME280;23832;43.216;27.946;2022-08-20T06:09:06;100272.41;;;32.17;97.31
38022;BME280;23832;43.216;27.946;2022-08-20T06:11:08;100269.63;;;32.26;97.58
38022;BME280;23832;43.216;27.946;2022-08-20T06:13:10;100271.41;;;32.31;95.49
38022;BME280;23832;43.216;27.946;2022-08-20T06:15:14;100268.81;;;32.34;89.90
38022;BME280;23832;43.216;27.946;2022-08-20T06:17:17;100272.34;;;32.35;89.29
38022;BME280;23832;43.216;27.946;2022-08-20T06:19:19;100268.50;;;32.36;87.54
38022;BME280;23832;43.216;27.946;2022-08-20T06:21:22;100272.50;;;32.38;87.89
38022;BME280;23832;43.216;27.946;2022-08-20T06:23:25;100272.19;;;32.40;88.15
38022;BME280;23832;43.216;27.946;2022-08-20T06:25:27;100273.44;;;32.42;86.98
38022;BME280;23832;43.216;27.946;2022-08-20T06:27:30;100272.00;;;32.45;83.58
38022;BME280;23832;43.216;27.946;2022-08-20T06:29:32;100274.25;;;32.43;81.60
38022;BME280;23832;43.216;27.946;2022-08-20T06:31:36;100282.25;;;32.48;80.32
38022;BME280;23832;43.216;27.946;2022-08-20T06:33:39;100283.19;;;32.52;79.47
38022;BME280;23832;43.216;27.946;2022-08-20T06:35:41;100286.66;;;32.61;79.52
38022;BME280;23832;43.216;27.946;2022-08-20T06:37:44;100284.69;;;32.70;78.54
38022;BME280;23832;43.216;27.946;2022-08-20T06:39:50;100288.66;;;32.82;77.46
38022;BME280;23832;43.216;27.946;2022-08-20T06:41:52;100276.94;;;32.90;74.86
38022;BME280;23832;43.216;27.946;2022-08-20T06:43:57;100280.41;;;32.99;74.01
38022;BME280;23832;43.216;27.946;2022-08-20T06:45:59;100287.41;;;33.09;73.17
38022;BME280;23832;43.216;27.946;2022-08-20T06:48:07;100283.31;;;33.15;70.44
38022;BME280;23832;43.216;27.946;2022-08-20T06:50:11;100289.06;;;33.22;70.00
38022;BME280;23832;43.216;27.946;2022-08-20T06:52:14;100294.13;;;33.32;69.14
38022;BME280;23832;43.216;27.946;2022-08-20T06:54:16;100292.81;;;33.38;68.93
38022;BME280;23832;43.216;27.946;2022-08-20T06:56:20;100298.22;;;33.47;67.80
38022;BME280;23832;43.216;27.946;2022-08-20T06:58:22;100288.88;;;33.48;66.07
38022;BME280;23832;43.216;27.946;2022-08-20T07:00:25;100293.44;;;33.44;65.94
38022;BME280;23832;43.216;27.946;2022-08-20T07:02:27;100290.94;;;33.51;66.92
38022;BME280;23832;43.216;27.946;2022-08-20T07:04:29;100295.88;;;33.57;66.62
38022;BME280;23832;43.216;27.946;2022-08-20T07:06:31;100294.88;;;33.62;64.70
38022;BME280;23832;43.216;27.946;2022-08-20T07:08:33;100293.84;;;33.67;63.97
38022;BME280;23832;43.216;27.946;2022-08-20T07:10:36;100296.38;;;33.72;63.25
38022;BME280;23832;43.216;27.946;2022-08-20T07:12:40;100293.50;;;33.68;62.03
38022;BME280;23832;43.216;27.946;2022-08-20T07:14:42;100296.03;;;33.73;62.09
38022;BME280;23832;43.216;27.946;2022-08-20T07:16:45;100292.38;;;33.69;61.27
38022;BME280;23832;43.216;27.946;2022-08-20T07:18:47;100294.56;;;33.76;62.59
38022;BME280;23832;43.216;27.946;2022-08-20T07:20:49;100289.69;;;33.81;63.49
38022;BME280;23832;43.216;27.946;2022-08-20T07:22:55;100293.78;;;33.87;63.90
38022;BME280;23832;43.216;27.946;2022-08-20T07:24:57;100295.66;;;33.96;64.00
38022;BME280;23832;43.216;27.946;2022-08-20T07:26:59;100292.38;;;34.02;63.52
38022;BME280;23832;43.216;27.946;2022-08-20T07:29:03;100290.91;;;34.05;63.97
38022;BME280;23832;43.216;27.946;2022-08-20T07:31:05;100297.22;;;34.18;65.00
38022;BME280;23832;43.216;27.946;2022-08-20T07:33:24;100289.25;;;34.25;64.22
38022;BME280;23832;43.216;27.946;2022-08-20T07:35:26;100291.34;;;34.40;64.71
38022;BME280;23832;43.216;27.946;2022-08-20T07:37:28;100284.38;;;34.55;64.14
38022;BME280;23832;43.216;27.946;2022-08-20T07:39:30;100277.75;;;34.68;62.82
38022;BME280;23832;43.216;27.946;2022-08-20T07:41:32;100277.75;;;34.80;62.36
38022;BME280;23832;43.216;27.946;2022-08-20T07:43:35;100282.78;;;34.90;60.27
38022;BME280;23832;43.216;27.946;2022-08-20T07:45:40;100275.69;;;35.02;59.92
38022;BME280;23832;43.216;27.946;2022-08-20T07:47:42;100274.31;;;35.08;59.76
38022;BME280;23832;43.216;27.946;2022-08-20T07:49:44;100276.91;;;35.16;59.35
38022;BME280;23832;43.216;27.946;2022-08-20T07:51:46;100272.44;;;35.24;58.31
38022;BME280;23832;43.216;27.946;2022-08-20T07:53:49;100279.25;;;35.30;58.06
38022;BME280;23832;43.216;27.946;2022-08-20T07:55:52;100278.66;;;35.37;58.00
38022;BME280;23832;43.216;27.946;2022-08-20T07:57:56;100282.81;;;35.43;58.33
38022;BME280;23832;43.216;27.946;2022-08-20T07:59:59;100287.81;;;35.41;58.82
38022;BME280;23832;43.216;27.946;2022-08-20T08:02:03;100287.94;;;35.44;59.76
38022;BME280;23832;43.216;27.946;2022-08-20T08:04:06;100280.84;;;35.43;59.59
38022;BME280;23832;43.216;27.946;2022-08-20T08:06:08;100287.66;;;35.49;60.12
38022;BME280;23832;43.216;27.946;2022-08-20T08:08:12;100293.16;;;35.49;62.42
38022;BME280;23832;43.216;27.946;2022-08-20T08:10:20;100288.13;;;35.51;61.85
38022;BME280;23832;43.216;27.946;2022-08-20T08:12:23;100289.94;;;35.60;61.63
38022;BME280;23832;43.216;27.946;2022-08-20T08:14:30;100286.88;;;35.49;63.08
38022;BME280;23832;43.216;27.946;2022-08-20T08:16:35;100283.00;;;35.38;64.47
38022;BME280;23832;43.216;27.946;2022-08-20T08:18:43;100285.47;;;35.55;64.75
38022;BME280;23832;43.216;27.946;2022-08-20T08:20:47;100280.34;;;35.53;63.40
38022;BME280;23832;43.216;27.946;2022-08-20T08:22:53;100283.94;;;35.70;60.72
38022;BME280;23832;43.216;27.946;2022-08-20T08:24:55;100285.38;;;35.79;61.42
38022;BME280;23832;43.216;27.946;2022-08-20T08:26:59;100288.19;;;35.83;63.79
38022;BME280;23832;43.216;27.946;2022-08-20T08:29:01;100273.91;;;35.90;63.84
38022;BME280;23832;43.216;27.946;2022-08-20T08:31:04;100284.59;;;35.95;64.35
38022;BME280;23832;43.216;27.946;2022-08-20T08:33:07;100276.94;;;36.16;63.85
38022;BME280;23832;43.216;27.946;2022-08-20T08:35:28;100273.75;;;36.30;60.44
38022;BME280;23832;43.216;27.946;2022-08-20T08:37:32;100278.03;;;36.43;59.36
38022;BME280;23832;43.216;27.946;2022-08-20T08:39:34;100277.66;;;36.60;60.43
38022;BME280;23832;43.216;27.946;2022-08-20T08:41:39;100288.16;;;36.74;58.49
38022;BME280;23832;43.216;27.946;2022-08-20T08:43:48;100270.97;;;36.77;58.86
38022;BME280;23832;43.216;27.946;2022-08-20T08:45:57;100259.72;;;36.66;58.98
38022;BME280;23832;43.216;27.946;2022-08-20T08:48:00;100270.00;;;36.70;58.16
38022;BME280;23832;43.216;27.946;2022-08-20T08:50:04;100272.06;;;36.57;57.08
38022;BME280;23832;43.216;27.946;2022-08-20T08:52:12;100276.09;;;36.79;56.70
38022;BME280;23832;43.216;27.946;2022-08-20T08:54:20;100270.44;;;36.87;56.61
38022;BME280;23832;43.216;27.946;2022-08-20T08:56:26;100275.53;;;37.05;56.33
38022;BME280;23832;43.216;27.946;2022-08-20T08:58:29;100271.19;;;37.23;55.73
38022;BME280;23832;43.216;27.946;2022-08-20T09:00:33;100273.25;;;37.45;54.96
38022;BME280;23832;43.216;27.946;2022-08-20T09:02:37;100271.28;;;37.46;52.86
38022;BME280;23832;43.216;27.946;2022-08-20T09:04:42;100269.53;;;37.38;53.57
38022;BME280;23832;43.216;27.946;2022-08-20T09:06:44;100267.88;;;37.53;53.27
38022;BME280;23832;43.216;27.946;2022-08-20T09:08:50;100275.06;;;37.57;53.22
38022;BME280;23832;43.216;27.946;2022-08-20T09:10:53;100274.63;;;37.36;53.62
38022;BME280;23832;43.216;27.946;2022-08-20T09:12:55;100270.78;;;37.40;53.55
38022;BME280;23832;43.216;27.946;2022-08-20T09:14:57;100274.50;;;37.48;53.85
38022;BME280;23832;43.216;27.946;2022-08-20T09:16:59;100270.25;;;37.54;53.56
38022;BME280;23832;43.216;27.946;2022-08-20T09:19:01;100272.88;;;37.66;53.14
38022;BME280;23832;43.216;27.946;2022-08-20T09:21:04;100275.06;;;37.57;53.14
38022;BME280;23832;43.216;27.946;2022-08-20T09:23:06;100283.00;;;37.62;52.95
38022;BME280;23832;43.216;27.946;2022-08-20T09:25:10;100280.00;;;37.48;52.85
38022;BME280;23832;43.216;27.946;2022-08-20T09:27:12;100272.59;;;37.52;53.23
38022;BME280;23832;43.216;27.946;2022-08-20T09:29:14;100271.78;;;37.52;53.98
38022;BME280;23832;43.216;27.946;2022-08-20T09:31:16;100275.84;;;37.58;53.96
38022;BME280;23832;43.216;27.946;2022-08-20T09:33:18;100269.25;;;37.62;53.74
38022;BME280;23832;43.216;27.946;2022-08-20T09:35:20;100267.78;;;37.68;54.22
38022;BME280;23832;43.216;27.946;2022-08-20T09:37:23;100273.88;;;37.77;55.23
38022;BME280;23832;43.216;27.946;2022-08-20T09:39:26;100280.91;;;37.75;55.77
38022;BME280;23832;43.216;27.946;2022-08-20T09:41:30;100267.09;;;37.52;56.21
38022;BME280;23832;43.216;27.946;2022-08-20T09:43:32;100261.59;;;37.52;57.67
38022;BME280;23832;43.216;27.946;2022-08-20T09:45:35;100252.59;;;37.55;59.04
38022;BME280;23832;43.216;27.946;2022-08-20T09:47:37;100253.41;;;37.56;59.88
38022;BME280;23832;43.216;27.946;2022-08-20T09:49:39;100254.31;;;37.40;60.51
38022;BME280;23832;43.216;27.946;2022-08-20T09:51:41;100249.00;;;37.51;60.42
38022;BME280;23832;43.216;27.946;2022-08-20T09:53:44;100252.03;;;37.46;57.99
38022;BME280;23832;43.216;27.946;2022-08-20T09:55:49;100251.38;;;37.53;57.99
38022;BME280;23832;43.216;27.946;2022-08-20T09:57:53;100251.00;;;37.54;58.21
38022;BME280;23832;43.216;27.946;2022-08-20T09:59:58;100249.09;;;37.35;55.98
38022;BME280;23832;43.216;27.946;2022-08-20T10:02:01;100248.13;;;37.28;57.43
38022;BME280;23832;43.216;27.946;2022-08-20T10:04:03;100241.97;;;37.15;57.42
38022;BME280;23832;43.216;27.946;2022-08-20T10:06:05;100243.28;;;37.21;58.34
38022;BME280;23832;43.216;27.946;2022-08-20T10:08:09;100250.28;;;37.18;58.25
38022;BME280;23832;43.216;27.946;2022-08-20T10:10:13;100242.72;;;37.12;58.36
38022;BME280;23832;43.216;27.946;2022-08-20T10:12:15;100246.09;;;37.05;58.18
38022;BME280;23832;43.216;27.946;2022-08-20T10:14:18;100247.38;;;37.11;58.35
38022;BME280;23832;43.216;27.946;2022-08-20T10:16:21;100242.63;;;37.08;58.67
38022;BME280;23832;43.216;27.946;2022-08-20T10:18:24;100239.44;;;37.06;58.87
38022;BME280;23832;43.216;27.946;2022-08-20T10:20:26;100235.03;;;37.02;58.54
38022;BME280;23832;43.216;27.946;2022-08-20T10:22:28;100240.03;;;36.96;59.65
38022;BME280;23832;43.216;27.946;2022-08-20T10:24:32;100246.16;;;36.74;62.24
38022;BME280;23832;43.216;27.946;2022-08-20T10:26:36;100246.09;;;36.86;61.54
38022;BME280;23832;43.216;27.946;2022-08-20T10:28:40;100247.69;;;36.87;61.10
38022;BME280;23832;43.216;27.946;2022-08-20T10:30:43;100245.09;;;36.94;61.55
38022;BME280;23832;43.216;27.946;2022-08-20T10:32:46;100241.44;;;36.90;62.60
38022;BME280;23832;43.216;27.946;2022-08-20T10:34:48;100247.53;;;36.99;63.77
38022;BME280;23832;43.216;27.946;2022-08-20T10:36:50;100253.81;;;37.00;62.15